createdAt,value
2017-02-21T00:00:44.483Z,11.18
2017-02-21T00:01:53.488Z,11.14
2017-02-21T00:03:02.478Z,11.09
2017-02-21T00:04:11.559Z,11.17
2017-02-21T00:05:20.541Z,11.17
2017-02-21T00:06:29.526Z,11.21
2017-02-21T00:07:38.527Z,11.11
2017-02-21T00:08:47.696Z,11.18
2017-02-21T00:09:56.693Z,11.19
2017-02-21T00:11:05.886Z,11.27
2017-02-21T00:12:14.869Z,11.21
2017-02-21T00:13:23.985Z,11.25
2017-02-21T00:14:33.071Z,11.22
2017-02-21T00:15:42.065Z,11.21
2017-02-21T00:16:51.066Z,11.24
2017-02-21T00:18:00.060Z,11.22
2017-02-21T00:19:09.040Z,11.24
2017-02-21T00:20:18.046Z,11.21
2017-02-21T00:21:27.249Z,11.25
2017-02-21T00:22:36.677Z,11.19
2017-02-21T00:23:45.682Z,11.24
2017-02-21T00:24:54.670Z,11.21
2017-02-21T00:26:03.750Z,11.19
2017-02-21T00:27:12.752Z,11.25
2017-02-21T00:28:21.748Z,11.14
2017-02-21T00:29:30.736Z,11.19
2017-02-21T00:30:39.854Z,11.22
2017-02-21T00:31:48.845Z,11.14
2017-02-21T00:32:57.836Z,11.18
2017-02-21T00:34:06.812Z,11.1
2017-02-21T00:35:15.801Z,11.1
2017-02-21T00:36:24.795Z,11.06
2017-02-21T00:37:33.805Z,11.09
2017-02-21T00:38:42.845Z,11.1
2017-02-21T00:39:51.845Z,11.07
2017-02-21T00:41:00.840Z,11.09
2017-02-21T00:42:09.855Z,11.06
2017-02-21T00:43:18.929Z,11.17
2017-02-21T00:44:27.920Z,11.18
2017-02-21T00:45:36.997Z,11.15
2017-02-21T00:46:45.985Z,11.14
2017-02-21T00:47:54.959Z,11.11
2017-02-21T00:49:03.957Z,11.15
2017-02-21T00:50:12.955Z,11.25
2017-02-21T00:51:21.948Z,11.17
2017-02-21T00:52:30.929Z,11.18
2017-02-21T00:53:40.013Z,11.14
2017-02-21T00:54:48.993Z,11.19
2017-02-21T00:55:57.990Z,11.17
2017-02-21T00:57:06.978Z,11.25
2017-02-21T00:58:15.963Z,11.18
2017-02-21T00:59:24.995Z,11.19
2017-02-21T01:00:33.991Z,11.15
2017-02-21T01:01:43.004Z,11.18
2017-02-21T01:02:51.997Z,11.21
2017-02-21T01:04:00.992Z,11.19
2017-02-21T01:05:09.996Z,11.14
2017-02-21T01:06:18.985Z,11.1
2017-02-21T01:07:28.082Z,11.14
2017-02-21T01:08:37.087Z,11.11
2017-02-21T01:09:46.106Z,11.18
2017-02-21T01:10:55.106Z,11.18
2017-02-21T01:12:04.115Z,11.09
2017-02-21T01:13:13.100Z,11.07
2017-02-21T01:14:22.080Z,11.11
2017-02-21T01:15:31.073Z,11.1
2017-02-21T01:16:40.066Z,11.03
2017-02-21T01:17:49.067Z,11.07
2017-02-21T01:18:58.052Z,11.03
2017-02-21T01:20:07.085Z,11.03
2017-02-21T01:21:16.081Z,11.04
2017-02-21T01:22:25.244Z,11.04
2017-02-21T01:23:34.236Z,10.97
2017-02-21T01:24:43.310Z,11.03
2017-02-21T01:25:52.324Z,11.03
2017-02-21T01:27:01.306Z,11.04
2017-02-21T01:28:10.286Z,11
2017-02-21T01:29:19.289Z,10.97
2017-02-21T01:30:28.351Z,11.04
2017-02-21T01:31:37.329Z,10.99
2017-02-21T01:32:46.328Z,10.99
2017-02-21T01:33:55.411Z,11.02
2017-02-21T01:35:04.416Z,10.94
2017-02-21T01:36:13.420Z,10.96
2017-02-21T01:37:22.512Z,11
2017-02-21T01:38:31.514Z,11.07
2017-02-21T01:39:40.506Z,10.96
2017-02-21T01:40:49.501Z,10.91
2017-02-21T01:41:58.492Z,11.07
2017-02-21T01:43:07.573Z,11.03
2017-02-21T01:44:16.574Z,11.07
2017-02-21T01:45:25.580Z,11.14
2017-02-21T01:46:34.579Z,11.09
2017-02-21T01:47:43.567Z,11.07
2017-02-21T01:48:52.575Z,11.03
2017-02-21T01:50:01.573Z,11.03
2017-02-21T01:51:10.577Z,11.02
2017-02-21T01:52:19.572Z,10.96
2017-02-21T01:53:28.558Z,10.92
2017-02-21T01:54:37.543Z,10.92
2017-02-21T01:55:46.541Z,10.86
2017-02-21T01:56:55.939Z,10.86
2017-02-21T01:58:05.334Z,10.94
2017-02-21T01:59:14.323Z,10.88
2017-02-21T02:00:23.299Z,10.91
2017-02-21T02:01:32.283Z,10.89
2017-02-21T02:02:41.271Z,10.92
2017-02-21T02:03:50.350Z,10.94
2017-02-21T02:04:59.332Z,10.97
2017-02-21T02:06:08.758Z,11.02
2017-02-21T02:07:17.759Z,10.97
2017-02-21T02:08:26.758Z,11.03
2017-02-21T02:09:35.754Z,11.03
2017-02-21T02:10:44.822Z,11.1
2017-02-21T02:11:53.842Z,11.18
2017-02-21T02:13:02.829Z,11.09
2017-02-21T02:14:11.836Z,11.09
2017-02-21T02:15:20.820Z,10.91
2017-02-21T02:16:29.818Z,11
2017-02-21T02:17:38.817Z,10.97
2017-02-21T02:18:47.815Z,10.97
2017-02-21T02:19:57.436Z,10.99
2017-02-21T02:21:07.414Z,10.94
2017-02-21T02:22:16.398Z,11
2017-02-21T02:23:25.809Z,10.99
2017-02-21T02:24:34.884Z,10.97
2017-02-21T02:25:44.293Z,10.99
2017-02-21T02:26:53.382Z,11
2017-02-21T02:28:02.373Z,10.96
2017-02-21T02:29:11.367Z,11.03
2017-02-21T02:30:20.352Z,11.04
2017-02-21T02:31:29.330Z,11.04
2017-02-21T02:32:38.429Z,11.03
2017-02-21T02:33:47.430Z,11.11
2017-02-21T02:34:56.420Z,11
2017-02-21T02:36:05.405Z,11
2017-02-21T02:37:14.483Z,11.03
2017-02-21T02:38:23.868Z,10.96
2017-02-21T02:39:32.849Z,10.96
2017-02-21T02:40:41.912Z,10.89
2017-02-21T02:41:50.905Z,10.86
2017-02-21T02:42:59.986Z,10.76
2017-02-21T02:44:08.969Z,10.81
2017-02-21T02:45:17.972Z,10.74
2017-02-21T02:46:26.964Z,10.81
2017-02-21T02:47:35.945Z,10.82
2017-02-21T02:48:44.927Z,10.76
2017-02-21T02:49:54.095Z,10.85
2017-02-21T02:51:03.078Z,10.84
2017-02-21T02:52:12.062Z,10.86
2017-02-21T02:53:21.043Z,10.82
2017-02-21T02:54:30.129Z,10.84
2017-02-21T02:55:39.113Z,10.79
2017-02-21T02:56:48.114Z,10.81
2017-02-21T02:57:57.094Z,10.81
2017-02-21T02:59:06.081Z,10.85
2017-02-21T03:00:15.098Z,10.76
2017-02-21T03:01:24.598Z,10.81
2017-02-21T03:02:33.594Z,10.85
2017-02-21T03:03:42.702Z,10.86
2017-02-21T03:04:51.685Z,10.89
2017-02-21T03:06:01.138Z,10.94
2017-02-21T03:07:10.124Z,10.86
2017-02-21T03:08:19.114Z,10.86
2017-02-21T03:09:28.530Z,10.88
2017-02-21T03:10:37.508Z,10.89
2017-02-21T03:11:46.508Z,10.89
2017-02-21T03:12:55.494Z,10.92
2017-02-21T03:14:05.631Z,10.84
2017-02-21T03:15:14.622Z,10.85
2017-02-21T03:16:23.615Z,10.92
2017-02-21T03:17:32.599Z,10.85
2017-02-21T03:18:41.681Z,10.96
2017-02-21T03:19:50.668Z,10.96
2017-02-21T03:20:59.653Z,10.94
2017-02-21T03:22:08.647Z,10.96
2017-02-21T03:23:17.631Z,10.99
2017-02-21T03:24:26.729Z,11.07
2017-02-21T03:25:35.729Z,11.02
2017-02-21T03:26:45.243Z,11.03
2017-02-21T03:27:54.339Z,11.06
2017-02-21T03:29:03.402Z,10.99
2017-02-21T03:30:12.397Z,10.97
2017-02-21T03:31:21.391Z,10.99
2017-02-21T03:32:30.475Z,11.09
2017-02-21T03:33:39.464Z,11.04
2017-02-21T03:34:48.450Z,11.02
2017-02-21T03:35:57.525Z,11.1
2017-02-21T03:37:06.513Z,11.09
2017-02-21T03:38:15.610Z,11.11
2017-02-21T03:39:24.618Z,11.07
2017-02-21T03:40:33.609Z,11.11
2017-02-21T03:41:43.037Z,11.09
2017-02-21T03:42:52.102Z,11.14
2017-02-21T03:44:01.097Z,11.11
2017-02-21T03:45:10.127Z,11.06
2017-02-21T03:46:19.115Z,11.07
2017-02-21T03:47:28.493Z,11.07
2017-02-21T03:48:37.485Z,11.07
2017-02-21T03:49:46.895Z,11.11
2017-02-21T03:50:55.881Z,11.11
2017-02-21T03:52:04.883Z,11.11
2017-02-21T03:53:13.894Z,11.1
2017-02-21T03:54:22.882Z,11.09
2017-02-21T03:55:31.894Z,11.14
2017-02-21T03:56:40.881Z,11.18
2017-02-21T03:57:49.889Z,11.03
2017-02-21T03:58:59.409Z,11.11
2017-02-21T04:00:08.493Z,11.11
2017-02-21T04:01:17.474Z,11.06
2017-02-21T04:02:26.472Z,11.02
2017-02-21T04:03:35.470Z,11.09
2017-02-21T04:04:44.480Z,11
2017-02-21T04:05:53.482Z,11.03
2017-02-21T04:07:02.568Z,11.11
2017-02-21T04:08:11.645Z,11.03
2017-02-21T04:09:20.809Z,11.03
2017-02-21T04:10:29.879Z,11
2017-02-21T04:11:39.369Z,11
2017-02-21T04:12:48.456Z,11.02
2017-02-21T04:13:57.541Z,10.89
2017-02-21T04:15:06.533Z,10.97
2017-02-21T04:16:15.526Z,10.99
2017-02-21T04:17:24.595Z,11
2017-02-21T04:18:33.587Z,10.92
2017-02-21T04:19:45.601Z,10.89
2017-02-21T04:20:54.600Z,10.88
2017-02-21T04:22:03.680Z,10.96
2017-02-21T04:23:12.686Z,10.99
2017-02-21T04:24:21.677Z,10.97
2017-02-21T04:25:30.655Z,10.99
2017-02-21T04:26:39.720Z,11.06
2017-02-21T04:27:48.714Z,11.04
2017-02-21T04:28:57.805Z,10.97
2017-02-21T04:30:06.806Z,11.02
2017-02-21T04:31:15.794Z,11.07
2017-02-21T04:32:24.807Z,11.04
2017-02-21T04:33:33.797Z,11
2017-02-21T04:34:42.785Z,11.07
2017-02-21T04:35:51.764Z,11.02
2017-02-21T04:37:00.756Z,11.14
2017-02-21T04:38:09.739Z,11.07
2017-02-21T04:39:18.836Z,11.14
2017-02-21T04:40:27.827Z,11.09
2017-02-21T04:41:36.810Z,11.1
2017-02-21T04:42:45.810Z,11.14
2017-02-21T04:43:54.797Z,11.03
2017-02-21T04:45:03.777Z,11.04
2017-02-21T04:46:13.185Z,11.07
2017-02-21T04:47:22.174Z,11.11
2017-02-21T04:48:31.187Z,11.1
2017-02-21T04:49:40.177Z,11.04
2017-02-21T04:50:49.167Z,11.03
2017-02-21T04:51:58.177Z,10.97
2017-02-21T04:53:07.163Z,10.99
2017-02-21T04:54:16.147Z,11.03
2017-02-21T04:55:25.132Z,11.03
2017-02-21T04:56:34.137Z,10.99
2017-02-21T04:57:43.295Z,11.04
2017-02-21T04:58:52.386Z,11.03
2017-02-21T05:00:01.368Z,11.07
2017-02-21T05:01:10.359Z,11
2017-02-21T05:02:19.343Z,11.03
2017-02-21T05:03:28.389Z,10.99
2017-02-21T05:04:37.467Z,11.03
2017-02-21T05:05:46.462Z,10.94
2017-02-21T05:06:55.468Z,11.02
2017-02-21T05:08:04.530Z,10.97
2017-02-21T05:09:13.521Z,11.03
2017-02-21T05:10:22.539Z,11
2017-02-21T05:11:31.544Z,11.03
2017-02-21T05:12:40.536Z,11.06
2017-02-21T05:13:49.553Z,11.04
2017-02-21T05:14:58.958Z,10.96
2017-02-21T05:16:07.970Z,11.07
2017-02-21T05:17:16.955Z,11.07
2017-02-21T05:18:25.950Z,11.1
2017-02-21T05:19:34.932Z,11.15
2017-02-21T05:20:44.014Z,11.07
2017-02-21T05:21:53.007Z,11.09
2017-02-21T05:23:02.003Z,11.14
2017-02-21T05:24:11.013Z,11.07
2017-02-21T05:25:19.998Z,11
2017-02-21T05:26:29.085Z,11.1
2017-02-21T05:27:38.067Z,11.09
2017-02-21T05:28:47.063Z,11.07
2017-02-21T05:29:56.044Z,11.1
2017-02-21T05:31:05.024Z,11.1
2017-02-21T05:32:14.008Z,11.1
2017-02-21T05:33:23.082Z,11.04
2017-02-21T05:34:32.065Z,11.04
2017-02-21T05:35:41.142Z,11
2017-02-21T05:36:50.120Z,11.03
2017-02-21T05:37:59.108Z,11.03
2017-02-21T05:39:08.495Z,11.09
2017-02-21T05:40:17.498Z,11.03
2017-02-21T05:41:26.510Z,10.99
2017-02-21T05:42:35.489Z,11
2017-02-21T05:43:44.489Z,10.97
2017-02-21T05:44:53.482Z,10.99
2017-02-21T05:46:02.466Z,11.02
2017-02-21T05:47:11.447Z,10.91
2017-02-21T05:48:20.517Z,10.88
2017-02-21T05:49:29.508Z,10.88
2017-02-21T05:50:38.495Z,10.85
2017-02-21T05:51:47.472Z,10.99
2017-02-21T05:52:56.464Z,10.92
2017-02-21T05:54:05.475Z,10.88
2017-02-21T05:55:14.468Z,10.94
2017-02-21T05:56:23.914Z,10.94
2017-02-21T05:57:32.908Z,10.99
2017-02-21T05:58:41.883Z,10.96
2017-02-21T05:59:50.973Z,10.91
2017-02-21T06:01:00.071Z,10.85
2017-02-21T06:02:09.068Z,10.85
2017-02-21T06:03:18.144Z,10.85
2017-02-21T06:04:27.150Z,10.92
2017-02-21T06:05:36.133Z,10.92
2017-02-21T06:06:45.125Z,11
2017-02-21T06:07:54.133Z,11.04
2017-02-21T06:09:03.125Z,11.02
2017-02-21T06:10:12.113Z,11.02
2017-02-21T06:11:21.091Z,10.94
2017-02-21T06:12:30.089Z,10.99
2017-02-21T06:13:39.091Z,10.97
2017-02-21T06:14:48.371Z,11.03
2017-02-21T06:15:57.388Z,10.99
2017-02-21T06:17:06.616Z,10.99
2017-02-21T06:18:15.624Z,11
2017-02-21T06:19:24.642Z,11
2017-02-21T06:20:33.630Z,11.02
2017-02-21T06:21:42.635Z,10.91
2017-02-21T06:22:51.621Z,10.85
2017-02-21T06:24:01.516Z,10.92
2017-02-21T06:25:10.620Z,10.79
2017-02-21T06:26:19.613Z,10.73
2017-02-21T06:27:28.722Z,10.73
2017-02-21T06:28:37.746Z,10.71
2017-02-21T06:29:46.733Z,10.74
2017-02-21T06:30:55.809Z,10.66
2017-02-21T06:32:04.807Z,10.6
2017-02-21T06:33:13.798Z,10.6
2017-02-21T06:34:22.881Z,10.61
2017-02-21T06:35:31.863Z,10.6
2017-02-21T06:36:42.056Z,10.66
2017-02-21T06:37:51.061Z,10.66
2017-02-21T06:39:00.340Z,10.6
2017-02-21T06:40:10.513Z,10.68
2017-02-21T06:41:19.513Z,10.6
2017-02-21T06:42:29.060Z,10.61
2017-02-21T06:43:38.054Z,10.68
2017-02-21T06:44:47.034Z,10.71
2017-02-21T06:45:56.037Z,10.7
2017-02-21T06:47:06.130Z,10.71
2017-02-21T06:48:15.522Z,10.7
2017-02-21T06:49:24.894Z,10.73
2017-02-21T06:50:34.395Z,10.79
2017-02-21T06:51:43.596Z,10.79
2017-02-21T06:52:52.611Z,10.81
2017-02-21T06:54:01.605Z,10.76
2017-02-21T06:55:12.681Z,10.76
2017-02-21T06:56:22.376Z,10.78
2017-02-21T06:57:32.464Z,10.78
2017-02-21T06:58:42.262Z,10.82
2017-02-21T06:59:52.887Z,10.81
2017-02-21T07:01:02.110Z,10.74
2017-02-21T07:02:11.761Z,10.78
2017-02-21T07:03:20.744Z,10.78
2017-02-21T07:04:29.746Z,10.71
2017-02-21T07:05:38.758Z,10.67
2017-02-21T07:06:47.785Z,10.68
2017-02-21T07:07:56.783Z,10.68
2017-02-21T07:09:05.782Z,10.7
2017-02-21T07:10:14.783Z,10.7
2017-02-21T07:11:23.904Z,10.68
2017-02-21T07:12:32.904Z,10.76
2017-02-21T07:13:41.890Z,10.7
2017-02-21T07:14:51.139Z,10.68
2017-02-21T07:16:00.177Z,10.76
2017-02-21T07:17:09.162Z,10.73
2017-02-21T07:18:18.165Z,10.78
2017-02-21T07:19:27.152Z,10.74
2017-02-21T07:20:36.624Z,10.82
2017-02-21T07:21:45.669Z,10.79
2017-02-21T07:22:54.663Z,10.81
2017-02-21T07:24:03.862Z,10.73
2017-02-21T07:25:12.930Z,10.81
2017-02-21T07:26:21.938Z,10.78
2017-02-21T07:27:31.367Z,10.91
2017-02-21T07:28:40.675Z,10.99
2017-02-21T07:29:50.411Z,10.99
2017-02-21T07:30:59.404Z,10.89
2017-02-21T07:32:08.404Z,11
2017-02-21T07:33:17.476Z,11.04
2017-02-21T07:34:26.489Z,10.94
2017-02-21T07:35:35.473Z,11.03
2017-02-21T07:36:44.458Z,10.97
2017-02-21T07:37:54.031Z,11
2017-02-21T07:39:04.328Z,11.03
2017-02-21T07:40:14.046Z,11.04
2017-02-21T07:41:23.844Z,11.02
2017-02-21T07:42:33.134Z,11.07
2017-02-21T07:43:42.396Z,11.1
2017-02-21T07:44:51.378Z,11.1
2017-02-21T07:46:00.479Z,11.07
2017-02-21T07:47:09.586Z,11.15
2017-02-21T07:48:18.903Z,11.15
2017-02-21T07:49:28.304Z,11.06
2017-02-21T07:50:37.415Z,11.09
2017-02-21T07:51:46.540Z,11.1
2017-02-21T07:52:55.531Z,11.09
2017-02-21T07:54:04.707Z,11.11
2017-02-21T07:55:13.966Z,11.1
2017-02-21T07:56:24.090Z,11.09
2017-02-21T07:57:33.078Z,11
2017-02-21T07:58:42.478Z,11.04
2017-02-21T07:59:51.889Z,11.02
2017-02-21T08:01:00.885Z,11.02
2017-02-21T08:02:09.874Z,11.04
2017-02-21T08:03:18.867Z,10.99
2017-02-21T08:04:27.868Z,10.97
2017-02-21T08:05:36.875Z,10.99
2017-02-21T08:06:45.860Z,10.94
2017-02-21T08:07:54.852Z,10.88
2017-02-21T08:09:03.842Z,10.76
2017-02-21T08:10:12.920Z,10.78
2017-02-21T08:11:21.955Z,10.64
2017-02-21T08:12:31.251Z,10.66
2017-02-21T08:13:40.257Z,10.6
2017-02-21T08:14:49.263Z,10.6
2017-02-21T08:15:58.252Z,10.47
2017-02-21T08:17:07.491Z,10.64
2017-02-21T08:18:16.611Z,10.64
2017-02-21T08:19:25.682Z,10.53
2017-02-21T08:20:34.682Z,10.52
2017-02-21T08:21:43.763Z,10.52
2017-02-21T08:22:52.767Z,10.45
2017-02-21T08:24:01.758Z,10.48
2017-02-21T08:25:11.167Z,10.47
2017-02-21T08:26:20.171Z,10.4
2017-02-21T08:27:29.188Z,10.34
2017-02-21T08:28:38.635Z,10.33
2017-02-21T08:29:48.921Z,10.34
2017-02-21T08:30:57.910Z,10.3
2017-02-21T08:32:06.892Z,10.36
2017-02-21T08:33:15.986Z,10.36
2017-02-21T08:34:25.160Z,10.47
2017-02-21T08:35:34.543Z,10.34
2017-02-21T08:36:43.850Z,10.45
2017-02-21T08:37:52.856Z,10.38
2017-02-21T08:39:01.839Z,10.41
2017-02-21T08:40:11.136Z,10.42
2017-02-21T08:41:20.276Z,10.4
2017-02-21T08:42:29.977Z,10.27
2017-02-21T08:43:38.958Z,10.33
2017-02-21T08:44:47.962Z,10.32
2017-02-21T08:45:56.968Z,10.27
2017-02-21T08:47:05.965Z,10.23
2017-02-21T08:48:14.989Z,10.2
2017-02-21T08:49:24.002Z,10.18
2017-02-21T08:50:33.003Z,10.12
2017-02-21T08:51:45.375Z,10.22
2017-02-21T08:52:58.852Z,10.22
2017-02-21T08:54:09.375Z,10.18
2017-02-21T08:55:21.482Z,10.18
2017-02-21T08:56:35.444Z,10.27
2017-02-21T08:57:48.142Z,10.23
2017-02-21T08:58:57.730Z,10.26
2017-02-21T09:00:08.491Z,10.11
2017-02-21T09:01:20.919Z,10.12
2017-02-21T09:02:33.774Z,10.12
2017-02-21T09:03:47.324Z,10.08
2017-02-21T09:05:01.670Z,10.11
2017-02-21T09:06:18.105Z,10.11
2017-02-21T09:07:31.691Z,10.11
2017-02-21T09:08:41.311Z,10.11
2017-02-21T09:09:50.309Z,9.99
2017-02-21T09:10:59.319Z,9.9
2017-02-21T09:12:08.321Z,9.86
2017-02-21T09:13:17.757Z,9.87
2017-02-21T09:14:27.674Z,9.76
2017-02-21T09:15:39.080Z,9.72
2017-02-21T09:16:50.917Z,9.72
2017-02-21T09:18:01.293Z,9.72
2017-02-21T09:19:10.411Z,9.69
2017-02-21T09:20:19.410Z,9.68
2017-02-21T09:21:28.390Z,9.66
2017-02-21T09:22:37.404Z,9.66
2017-02-21T09:23:46.449Z,9.68
2017-02-21T09:24:58.351Z,9.61
2017-02-21T09:26:10.901Z,9.68
2017-02-21T09:27:21.092Z,9.61
2017-02-21T09:28:30.962Z,9.71
2017-02-21T09:29:42.183Z,9.75
2017-02-21T09:30:51.613Z,9.78
2017-02-21T09:32:00.604Z,9.71
2017-02-21T09:33:09.603Z,9.84
2017-02-21T09:34:18.596Z,9.75
2017-02-21T09:35:27.587Z,9.75
2017-02-21T09:36:37.614Z,9.72
2017-02-21T09:37:47.105Z,9.74
2017-02-21T09:38:56.573Z,9.75
2017-02-21T09:40:05.563Z,9.71
2017-02-21T09:41:14.787Z,9.64
2017-02-21T09:42:24.182Z,9.74
2017-02-21T09:43:33.534Z,9.74
2017-02-21T09:44:42.869Z,9.72
2017-02-21T09:45:52.458Z,9.66
2017-02-21T09:47:01.451Z,9.65
2017-02-21T09:48:10.445Z,9.76
2017-02-21T09:49:19.435Z,9.69
2017-02-21T09:50:28.429Z,9.65
2017-02-21T09:51:37.425Z,9.66
2017-02-21T09:52:46.436Z,9.81
2017-02-21T09:53:55.451Z,9.79
2017-02-21T09:55:04.450Z,9.72
2017-02-21T09:56:14.015Z,9.65
2017-02-21T09:57:24.428Z,9.65
2017-02-21T09:58:35.639Z,9.61
2017-02-21T09:59:46.000Z,9.46
2017-02-21T10:00:55.665Z,9.53
2017-02-21T10:02:05.393Z,9.39
2017-02-21T10:03:14.385Z,9.5
2017-02-21T10:04:23.383Z,9.4
2017-02-21T10:05:32.506Z,9.2
2017-02-21T10:06:41.499Z,9.21
2017-02-21T10:07:50.486Z,9.23
2017-02-21T10:08:59.564Z,9.13
2017-02-21T10:10:08.998Z,9.05
2017-02-21T10:11:18.000Z,9.04
2017-02-21T10:12:27.107Z,8.98
2017-02-21T10:13:36.287Z,8.89
2017-02-21T10:14:45.292Z,8.94
2017-02-21T10:15:54.277Z,8.95
2017-02-21T10:17:03.266Z,8.98
2017-02-21T10:18:12.257Z,8.94
2017-02-21T10:19:21.658Z,8.89
2017-02-21T10:20:30.637Z,8.87
2017-02-21T10:21:39.620Z,8.84
2017-02-21T10:22:48.636Z,8.95
2017-02-21T10:23:57.639Z,8.79
2017-02-21T10:25:06.711Z,8.86
2017-02-21T10:26:15.716Z,8.91
2017-02-21T10:27:24.708Z,8.89
2017-02-21T10:28:33.801Z,8.91
2017-02-21T10:29:42.793Z,8.91
2017-02-21T10:30:51.785Z,8.83
2017-02-21T10:32:00.774Z,8.91
2017-02-21T10:33:09.863Z,9.04
2017-02-21T10:34:18.852Z,8.99
2017-02-21T10:35:27.945Z,8.98
2017-02-21T10:36:36.939Z,8.94
2017-02-21T10:37:46.022Z,8.91
2017-02-21T10:38:55.016Z,8.91
2017-02-21T10:40:04.101Z,9.02
2017-02-21T10:41:13.112Z,9.01
2017-02-21T10:42:22.508Z,8.99
2017-02-21T10:43:31.502Z,8.99
2017-02-21T10:44:40.479Z,9.08
2017-02-21T10:45:49.885Z,9.1
2017-02-21T10:46:58.872Z,9.23
2017-02-21T10:48:07.880Z,9.14
2017-02-21T10:49:16.887Z,9.26
2017-02-21T10:50:26.290Z,9.15
2017-02-21T10:51:35.552Z,9.18
2017-02-21T10:52:44.551Z,9.15
2017-02-21T10:53:53.640Z,9.17
2017-02-21T10:55:02.648Z,9.14
2017-02-21T10:56:11.716Z,9.14
2017-02-21T10:57:20.838Z,9.14
2017-02-21T10:58:29.830Z,9.18
2017-02-21T10:59:38.823Z,9.18
2017-02-21T11:00:47.801Z,9.18
2017-02-21T11:01:56.785Z,9.2
2017-02-21T11:03:05.784Z,9.23
2017-02-21T11:04:14.768Z,9.15
2017-02-21T11:05:24.157Z,9.15
2017-02-21T11:06:33.224Z,9.17
2017-02-21T11:07:42.233Z,9.2
2017-02-21T11:08:51.821Z,9.33
2017-02-21T11:10:00.804Z,9.28
2017-02-21T11:11:10.198Z,9.23
2017-02-21T11:12:19.281Z,9.15
2017-02-21T11:13:29.205Z,9.17
2017-02-21T11:14:38.295Z,9.18
2017-02-21T11:15:47.290Z,9.17
2017-02-21T11:16:56.272Z,9.26
2017-02-21T11:18:05.258Z,9.17
2017-02-21T11:19:14.264Z,9.17
2017-02-21T11:20:23.653Z,9.13
2017-02-21T11:21:32.667Z,9.17
2017-02-21T11:22:41.659Z,9.24
2017-02-21T11:23:50.737Z,9.32
2017-02-21T11:24:59.751Z,9.42
2017-02-21T11:26:08.740Z,9.4
2017-02-21T11:27:17.835Z,9.35
2017-02-21T11:28:26.918Z,9.47
2017-02-21T11:29:36.315Z,9.54
2017-02-21T11:30:45.321Z,9.53
2017-02-21T11:31:54.306Z,9.75
2017-02-21T11:33:03.392Z,9.83
2017-02-21T11:34:12.403Z,9.81
2017-02-21T11:35:21.801Z,9.9
2017-02-21T11:36:30.806Z,9.91
2017-02-21T11:37:39.804Z,9.99
2017-02-21T11:38:48.788Z,9.99
2017-02-21T11:39:57.871Z,10.01
2017-02-21T11:41:06.889Z,9.99
2017-02-21T11:42:15.898Z,9.99
2017-02-21T11:43:24.891Z,10.05
2017-02-21T11:44:33.869Z,10.23
2017-02-21T11:45:42.937Z,10.23
2017-02-21T11:46:51.930Z,10.38
2017-02-21T11:48:00.949Z,10.47
2017-02-21T11:49:09.942Z,10.44
2017-02-21T11:50:19.517Z,10.47
2017-02-21T11:51:28.595Z,10.55
2017-02-21T11:52:37.595Z,10.52
2017-02-21T11:53:46.599Z,10.47
2017-02-21T11:54:55.591Z,10.61
2017-02-21T11:56:04.998Z,10.61
2017-02-21T11:57:13.999Z,10.6
2017-02-21T11:58:22.994Z,10.59
2017-02-21T11:59:32.390Z,10.76
2017-02-21T12:00:41.387Z,10.79
2017-02-21T12:01:50.457Z,10.74
2017-02-21T12:02:59.466Z,10.7
2017-02-21T12:04:08.582Z,10.71
2017-02-21T12:05:17.575Z,10.64
2017-02-21T12:06:26.576Z,10.64
2017-02-21T12:07:35.662Z,10.6
2017-02-21T12:08:44.656Z,10.66
2017-02-21T12:09:53.648Z,10.63
2017-02-21T12:11:02.656Z,10.64
2017-02-21T12:12:12.050Z,10.6
2017-02-21T12:13:21.872Z,10.6
2017-02-21T12:14:30.878Z,10.56
2017-02-21T12:15:39.960Z,10.64
2017-02-21T12:16:48.957Z,10.59
2017-02-21T12:17:57.971Z,10.51
2017-02-21T12:19:06.952Z,10.48
2017-02-21T12:20:15.943Z,10.52
2017-02-21T12:21:25.035Z,10.53
2017-02-21T12:22:34.099Z,10.53
2017-02-21T12:23:43.120Z,10.53
2017-02-21T12:24:52.098Z,10.45
2017-02-21T12:26:01.101Z,10.48
2017-02-21T12:27:10.095Z,10.47
2017-02-21T12:28:19.592Z,10.55
2017-02-21T12:29:28.986Z,10.47
2017-02-21T12:30:38.020Z,10.41
2017-02-21T12:31:47.105Z,10.3
2017-02-21T12:32:56.115Z,10.33
2017-02-21T12:34:05.128Z,10.33
2017-02-21T12:35:14.113Z,10.3
2017-02-21T12:36:23.092Z,10.36
2017-02-21T12:37:32.089Z,10.32
2017-02-21T12:38:41.090Z,10.34
2017-02-21T12:39:50.094Z,10.32
2017-02-21T12:40:59.091Z,10.33
2017-02-21T12:42:08.167Z,10.29
2017-02-21T12:43:17.175Z,10.33
2017-02-21T12:44:26.677Z,10.3
2017-02-21T12:45:35.696Z,10.34
2017-02-21T12:46:44.685Z,10.34
2017-02-21T12:47:53.691Z,10.29
2017-02-21T12:49:02.689Z,10.29
2017-02-21T12:50:11.690Z,10.33
2017-02-21T12:51:21.275Z,10.44
2017-02-21T12:52:30.272Z,10.55
2017-02-21T12:53:39.262Z,10.52
2017-02-21T12:54:48.369Z,10.53
2017-02-21T12:55:57.350Z,10.59
2017-02-21T12:57:06.337Z,10.52
2017-02-21T12:58:15.329Z,10.61
2017-02-21T12:59:24.320Z,10.64
2017-02-21T13:00:33.392Z,10.56
2017-02-21T13:01:42.390Z,10.51
2017-02-21T13:02:51.379Z,10.52
2017-02-21T13:04:00.778Z,10.55
2017-02-21T13:05:09.789Z,10.63
2017-02-21T13:06:18.772Z,10.63
2017-02-21T13:07:27.774Z,10.68
2017-02-21T13:08:36.855Z,10.74
2017-02-21T13:09:45.864Z,10.7
2017-02-21T13:10:54.860Z,10.7
2017-02-21T13:12:03.864Z,10.68
2017-02-21T13:13:12.898Z,10.67
2017-02-21T13:14:22.315Z,10.63
2017-02-21T13:15:31.310Z,10.61
2017-02-21T13:16:40.390Z,10.67
2017-02-21T13:17:49.384Z,10.61
2017-02-21T13:18:58.395Z,10.64
2017-02-21T13:20:07.389Z,10.7
2017-02-21T13:21:16.379Z,10.67
2017-02-21T13:22:25.412Z,10.64
2017-02-21T13:23:34.408Z,10.63
2017-02-21T13:24:43.386Z,10.61
2017-02-21T13:25:52.392Z,10.6
2017-02-21T13:27:01.392Z,10.64
2017-02-21T13:28:10.393Z,10.59
2017-02-21T13:29:19.559Z,10.53
2017-02-21T13:30:28.630Z,10.63
2017-02-21T13:31:37.739Z,10.66
2017-02-21T13:32:46.795Z,10.68
2017-02-21T13:33:56.195Z,10.67
2017-02-21T13:35:05.183Z,10.78
2017-02-21T13:36:14.264Z,10.82
2017-02-21T13:37:23.265Z,10.94
2017-02-21T13:38:32.262Z,10.91
2017-02-21T13:39:41.670Z,10.99
2017-02-21T13:40:50.673Z,11.02
2017-02-21T13:41:59.697Z,11.04
2017-02-21T13:43:08.681Z,11.09
2017-02-21T13:44:17.671Z,11.06
2017-02-21T13:45:26.676Z,11.07
2017-02-21T13:46:35.656Z,11.07
2017-02-21T13:47:45.128Z,11.06
2017-02-21T13:48:54.293Z,11.06
2017-02-21T13:50:03.284Z,11.06
2017-02-21T13:51:12.322Z,11.06
2017-02-21T13:52:21.317Z,11.04
2017-02-21T13:53:30.299Z,11.02
2017-02-21T13:54:39.385Z,11.1
2017-02-21T13:55:48.388Z,11.1
2017-02-21T13:56:57.373Z,11.04
2017-02-21T13:58:06.367Z,11.1
2017-02-21T13:59:15.353Z,10.99
2017-02-21T14:00:24.363Z,11.04
2017-02-21T14:01:33.361Z,11.03
2017-02-21T14:02:42.350Z,11.1
2017-02-21T14:03:51.339Z,11.14
2017-02-21T14:06:09.094Z,11.1
2017-02-21T14:07:18.076Z,11.11
2017-02-21T14:08:27.072Z,11.03
2017-02-21T14:09:36.047Z,11.04
2017-02-21T14:10:45.133Z,11.06
2017-02-21T14:11:54.124Z,10.97
2017-02-21T14:13:03.518Z,10.99
2017-02-21T14:14:12.491Z,10.94
2017-02-21T14:15:21.477Z,10.97
2017-02-21T14:16:30.475Z,10.99
2017-02-21T14:17:39.870Z,10.86
2017-02-21T14:18:48.964Z,10.81
2017-02-21T14:19:57.955Z,10.84
2017-02-21T14:21:06.941Z,10.78
2017-02-21T14:22:15.925Z,10.82
2017-02-21T14:23:24.918Z,10.86
2017-02-21T14:24:33.908Z,10.85
2017-02-21T14:25:42.899Z,10.88
2017-02-21T14:26:52.077Z,10.86
2017-02-21T14:28:01.057Z,10.99
2017-02-21T14:29:10.499Z,11.03
2017-02-21T14:30:20.519Z,11.02
2017-02-21T14:31:29.779Z,11.04
2017-02-21T14:32:39.396Z,11.07
2017-02-21T14:33:48.800Z,11.04
2017-02-21T14:34:57.793Z,11.07
2017-02-21T14:36:07.496Z,11.04
2017-02-21T14:37:17.024Z,11.17
2017-02-21T14:38:27.261Z,11.15
2017-02-21T14:40:47.486Z,11.11
2017-02-21T14:41:56.862Z,11.18
2017-02-21T14:43:06.223Z,11.07
2017-02-21T14:44:15.876Z,11
2017-02-21T14:45:25.253Z,11.1
2017-02-21T14:46:34.908Z,11.04
2017-02-21T14:47:45.585Z,11.1
2017-02-21T14:48:55.409Z,11.15
2017-02-21T14:50:04.606Z,11.04
2017-02-21T14:51:14.185Z,10.97
2017-02-21T14:52:24.043Z,10.97
2017-02-21T14:53:33.056Z,10.92
2017-02-21T14:54:42.838Z,10.94
2017-02-21T14:55:52.321Z,10.99
2017-02-21T14:57:01.566Z,11.03
2017-02-21T14:58:12.457Z,10.99
2017-02-21T14:59:22.286Z,11.03
2017-02-21T15:00:33.147Z,11.04
2017-02-21T15:01:43.097Z,11.03
2017-02-21T15:02:52.730Z,11.02
2017-02-21T15:04:01.839Z,11.03